Time;durP1;ratioP1;P1;durP2;ratioP2;P2;SDS_P1;SDS_P2;PMS_P1;PMS_P2;Temp;Humidity;BMP_temperature;BMP_pressure;BME280_temperature;BME280_humidity;BME280_pressure;Samples;Min_cycle;Max_cycle;Signal;HPM_P1;HPM_P2
2022/03/18 00:00:31;;;;;;;8.57;2.17;;;10.70;65.80;;;;;;5025262;28;20528;-78
2022/03/18 00:02:57;;;;;;;9.65;3.03;;;10.60;65.70;;;;;;5025015;28;20266;-77
2022/03/18 00:05:24;;;;;;;8.77;2.25;;;10.60;65.70;;;;;;5026670;28;20091;-77
2022/03/18 00:07:52;;;;;;;7.00;2.30;;;10.60;65.70;;;;;;5025786;28;20215;-76
2022/03/18 00:10:19;;;;;;;11.85;3.00;;;10.60;65.80;;;;;;5024985;28;20037;-77
2022/03/18 00:12:46;;;;;;;11.32;2.75;;;10.60;65.80;;;;;;5023500;28;20033;-77
2022/03/18 00:15:14;;;;;;;14.82;3.63;;;10.60;65.80;;;;;;5026726;28;20030;-76
2022/03/18 00:17:41;;;;;;;11.45;2.75;;;10.50;65.70;;;;;;5025021;28;20476;-77
2022/03/18 00:20:09;;;;;;;8.32;2.33;;;10.50;65.70;;;;;;5020103;28;20026;-77
2022/03/18 00:22:35;;;;;;;7.78;3.00;;;10.50;65.80;;;;;;5023382;28;20033;-77
2022/03/18 00:25:02;;;;;;;9.88;2.88;;;10.50;65.80;;;;;;5026148;28;20033;-77
2022/03/18 00:27:29;;;;;;;13.68;2.85;;;10.40;65.70;;;;;;5022769;28;20120;-76
2022/03/18 00:29:56;;;;;;;10.07;2.95;;;10.40;65.70;;;;;;5025761;28;20029;-76
2022/03/18 00:32:23;;;;;;;8.15;2.67;;;10.30;65.60;;;;;;5023577;28;20033;-76
2022/03/18 00:34:49;;;;;;;10.77;2.83;;;10.30;65.70;;;;;;5025597;28;20053;-76
2022/03/18 00:37:15;;;;;;;7.18;1.90;;;10.30;65.70;;;;;;5025380;28;20120;-77
2022/03/18 00:39:41;;;;;;;10.73;2.10;;;10.30;65.80;;;;;;5023618;28;20041;-76
2022/03/18 00:42:07;;;;;;;6.13;2.20;;;10.20;65.60;;;;;;5014308;28;20116;-77
2022/03/18 00:44:33;;;;;;;8.48;2.28;;;10.20;65.70;;;;;;5023288;28;20121;-76
2022/03/18 00:46:59;;;;;;;13.45;2.45;;;10.20;65.70;;;;;;5017552;28;20034;-77
2022/03/18 00:52:13;;;;;;;7.88;2.03;;;10.20;65.70;;;;;;5017303;28;20132;-76
2022/03/18 00:54:44;;;;;;;10.77;2.40;;;10.10;65.60;;;;;;5025210;28;20404;-77
2022/03/18 00:57:11;;;;;;;9.02;2.35;;;10.10;65.70;;;;;;5023058;28;20033;-76
2022/03/18 00:59:37;;;;;;;10.52;2.05;;;10.10;65.70;;;;;;5018864;28;20040;-76
2022/03/18 01:02:03;;;;;;;7.07;2.42;;;10.00;65.60;;;;;;5017916;28;20030;-78
2022/03/18 01:04:29;;;;;;;12.48;3.90;;;10.00;65.60;;;;;;5020063;28;20056;-77
2022/03/18 01:06:56;;;;;;;7.75;1.85;;;10.00;65.70;;;;;;5017107;28;20121;-77
2022/03/18 01:09:23;;;;;;;5.50;2.22;;;9.90;65.60;;;;;;5023153;28;20037;-76
2022/03/18 01:11:50;;;;;;;11.60;2.15;;;9.90;65.70;;;;;;5028438;28;20041;-77
2022/03/18 01:14:18;;;;;;;7.28;2.03;;;9.90;65.70;;;;;;5040719;28;20033;-77
2022/03/18 01:16:44;;;;;;;9.45;2.97;;;9.80;65.60;;;;;;5023546;28;20041;-77
2022/03/18 01:19:10;;;;;;;11.85;2.72;;;9.80;65.60;;;;;;5026554;28;20139;-77
2022/03/18 01:21:37;;;;;;;11.10;2.17;;;9.70;65.50;;;;;;5034193;28;20026;-78
2022/03/18 01:24:04;;;;;;;9.27;2.28;;;9.70;65.50;;;;;;5028112;28;20029;-78
2022/03/18 01:26:30;;;;;;;8.73;2.08;;;9.70;65.50;;;;;;5028045;28;20120;-78
2022/03/18 01:28:57;;;;;;;12.63;2.92;;;9.70;65.60;;;;;;5027753;28;20025;-77
2022/03/18 01:31:23;;;;;;;8.07;2.42;;;9.60;65.40;;;;;;5028120;28;20037;-76
2022/03/18 01:33:49;;;;;;;10.27;2.72;;;9.60;65.50;;;;;;5028645;28;20049;-76
2022/03/18 01:36:15;;;;;;;4.55;1.83;;;9.60;65.60;;;;;;5028957;28;20045;-76
2022/03/18 01:38:41;;;;;;;4.90;1.70;;;9.50;65.40;;;;;;5023001;28;20072;-75
2022/03/18 01:41:08;;;;;;;11.60;3.90;;;9.50;65.50;;;;;;5022010;28;20033;-77
2022/03/18 01:43:45;;;;;;;11.15;3.20;;;9.50;65.50;;;;;;5019497;28;20026;-76
2022/03/18 01:46:12;;;;;;;9.88;2.00;;;9.40;65.50;;;;;;5023852;28;20033;-76
2022/03/18 01:48:38;;;;;;;7.57;2.42;;;9.40;65.50;;;;;;5043170;28;20599;-76
2022/03/18 01:51:05;;;;;;;7.20;3.25;;;9.30;65.30;;;;;;5027924;28;20127;-76
2022/03/18 01:53:36;;;;;;;11.30;3.42;;;9.30;65.30;;;;;;5019072;28;20472;-76
2022/03/18 01:56:03;;;;;;;8.35;2.60;;;9.30;65.40;;;;;;5023376;28;20079;-77
2022/03/18 01:58:29;;;;;;;8.55;1.92;;;9.30;65.40;;;;;;5017642;28;20550;-77
2022/03/18 02:00:55;;;;;;;5.88;1.75;;;9.20;65.30;;;;;;5028263;28;20984;-76
2022/03/18 02:03:21;;;;;;;7.93;2.13;;;9.20;65.30;;;;;;5017107;28;20034;-76
2022/03/18 02:05:48;;;;;;;5.05;2.40;;;9.20;65.40;;;;;;5015811;28;20111;-77
2022/03/18 02:08:16;;;;;;;3.83;2.03;;;9.10;65.20;;;;;;5027401;28;20041;-76
2022/03/18 02:10:43;;;;;;;6.28;2.13;;;9.10;65.20;;;;;;5026383;28;20133;-76
2022/03/18 02:13:09;;;;;;;4.10;1.85;;;9.10;65.20;;;;;;5026236;28;20303;-76
2022/03/18 02:15:35;;;;;;;4.75;1.55;;;9.00;65.10;;;;;;5008840;28;20109;-77
2022/03/18 02:18:02;;;;;;;5.65;1.63;;;9.00;65.10;;;;;;5021335;28;20418;-76
2022/03/18 02:20:28;;;;;;;5.75;1.50;;;9.00;65.10;;;;;;5026357;28;20034;-76
2022/03/18 02:22:54;;;;;;;3.55;1.30;;;8.90;65.00;;;;;;5026623;28;20017;-77
2022/03/18 02:25:20;;;;;;;5.90;1.60;;;8.90;65.00;;;;;;5026460;28;20046;-76
2022/03/18 02:27:54;;;;;;;3.55;1.40;;;8.90;65.10;;;;;;5040383;28;20179;-76
2022/03/18 02:30:21;;;;;;;5.93;1.75;;;8.90;65.70;;;;;;5026146;28;20115;-77
2022/03/18 02:32:47;;;;;;;8.43;3.05;;;8.80;65.50;;;;;;5027670;28;20030;-76
2022/03/18 02:35:13;;;;;;;6.60;2.05;;;8.80;65.00;;;;;;5026474;28;20083;-77
2022/03/18 02:37:38;;;;;;;4.18;2.55;;;8.70;64.90;;;;;;5026412;28;20030;-76
2022/03/18 02:40:05;;;;;;;5.57;1.80;;;8.70;64.90;;;;;;5026405;28;20045;-76
2022/03/18 02:42:31;;;;;;;5.35;1.40;;;8.70;64.90;;;;;;5021227;28;20030;-78
2022/03/18 02:44:57;;;;;;;5.47;1.95;;;8.60;64.80;;;;;;5007122;28;20473;-77
2022/03/18 02:47:24;;;;;;;6.05;1.95;;;8.60;64.80;;;;;;5051034;23;20076;-82
2022/03/18 02:49:50;;;;;;;4.32;1.92;;;8.60;64.80;;;;;;5048350;28;20029;-82
2022/03/18 02:52:16;;;;;;;3.60;1.45;;;8.50;64.70;;;;;;5033738;28;20025;-81
2022/03/18 02:54:42;;;;;;;5.22;1.73;;;8.50;64.70;;;;;;5033760;28;20446;-81
2022/03/18 02:57:09;;;;;;;4.28;1.88;;;8.50;64.70;;;;;;5032110;28;20041;-80
2022/03/18 02:59:35;;;;;;;4.50;1.35;;;8.50;64.70;;;;;;5015801;28;20037;-81
2022/03/18 03:02:01;;;;;;;5.10;1.85;;;8.40;64.60;;;;;;5028310;28;20079;-81
2022/03/18 03:04:27;;;;;;;5.20;1.55;;;8.40;64.60;;;;;;5027281;28;20037;-81
2022/03/18 03:09:37;;;;;;;4.70;2.35;;;8.40;64.70;;;;;;5014509;28;20034;-81
2022/03/18 03:12:03;;;;;;;3.95;1.70;;;8.30;64.50;;;;;;5016848;28;20051;-81
2022/03/18 03:14:29;;;;;;;7.32;1.83;;;8.30;64.50;;;;;;5027191;28;20091;-81
2022/03/18 03:16:56;;;;;;;4.80;1.92;;;8.20;64.40;;;;;;5025737;28;20572;-81
2022/03/18 03:19:22;;;;;;;4.82;1.65;;;8.20;64.40;;;;;;5019515;28;20125;-80
2022/03/18 03:21:48;;;;;;;5.95;1.50;;;8.20;64.40;;;;;;5022462;28;20463;-78
2022/03/18 03:24:14;;;;;;;5.55;1.38;;;8.20;64.40;;;;;;5026801;28;20064;-80
2022/03/18 03:26:40;;;;;;;4.88;1.50;;;8.10;64.30;;;;;;5026441;28;20056;-82
2022/03/18 03:29:06;;;;;;;7.80;2.55;;;8.10;64.30;;;;;;5025938;28;20025;-82
2022/03/18 03:31:32;;;;;;;2.70;1.60;;;8.10;64.40;;;;;;5023399;28;20040;-82
2022/03/18 03:33:58;;;;;;;7.20;1.92;;;8.10;64.40;;;;;;5053900;28;20083;-82
2022/03/18 03:36:24;;;;;;;8.07;3.05;;;8.10;64.40;;;;;;5030383;28;20040;-81
2022/03/18 03:38:50;;;;;;;5.38;1.83;;;8.00;64.30;;;;;;5030482;28;20372;-82
2022/03/18 03:41:20;;;;;;;4.97;1.75;;;8.00;64.30;;;;;;5029752;28;20083;-82
2022/03/18 03:43:46;;;;;;;7.75;1.85;;;8.00;64.30;;;;;;5041669;28;20095;-82
2022/03/18 03:46:12;;;;;;;6.20;1.35;;;8.00;64.30;;;;;;5025029;28;20065;-81
2022/03/18 03:48:38;;;;;;;5.15;2.13;;;7.90;64.10;;;;;;5027712;28;20534;-81
2022/03/18 03:51:04;;;;;;;6.50;1.63;;;7.90;64.20;;;;;;5027910;28;20029;-82
2022/03/18 03:53:30;;;;;;;6.70;1.70;;;7.90;64.20;;;;;;5027693;28;20063;-82
2022/03/18 03:55:56;;;;;;;5.70;1.70;;;7.90;64.20;;;;;;5026702;28;20072;-82
2022/03/18 03:58:22;;;;;;;3.67;1.65;;;7.90;64.20;;;;;;5026387;28;20064;-82
2022/03/18 04:00:48;;;;;;;6.15;1.83;;;7.80;64.10;;;;;;5026385;28;20087;-82
2022/03/18 04:03:14;;;;;;;6.00;2.00;;;7.80;64.10;;;;;;5042378;28;20034;-81
2022/03/18 04:05:40;;;;;;;6.47;2.17;;;7.80;64.10;;;;;;5027435;28;20119;-81
2022/03/18 04:08:06;;;;;;;6.07;2.20;;;7.70;64.50;;;;;;5026295;28;20032;-82
2022/03/18 04:10:32;;;;;;;6.57;1.80;;;7.70;64.00;;;;;;5042473;28;20029;-81
2022/03/18 04:12:58;;;;;;;6.75;2.00;;;7.70;64.00;;;;;;5018544;28;20489;-80
2022/03/18 04:15:24;;;;;;;7.93;1.88;;;7.70;64.00;;;;;;5013664;28;20459;-80
2022/03/18 04:17:50;;;;;;;3.88;1.45;;;7.70;64.00;;;;;;5026839;28;20049;-81
2022/03/18 04:20:20;;;;;;;3.78;1.73;;;7.60;63.90;;;;;;5027265;28;20775;-81
2022/03/18 04:22:46;;;;;;;7.32;1.63;;;7.60;63.90;;;;;;5021071;28;20488;-81
2022/03/18 04:25:13;;;;;;;9.65;2.83;;;7.60;63.90;;;;;;5026721;28;20036;-81
2022/03/18 04:27:39;;;;;;;9.40;1.88;;;7.60;64.00;;;;;;5025483;28;20488;-82
2022/03/18 04:30:08;;;;;;;7.57;1.58;;;7.50;63.80;;;;;;5024271;28;20087;-82
2022/03/18 04:32:34;;;;;;;7.18;1.50;;;7.50;63.80;;;;;;5025451;28;20022;-82
2022/03/18 04:34:59;;;;;;;7.90;2.05;;;7.50;63.80;;;;;;5027126;28;20112;-84
2022/03/18 04:37:25;;;;;;;4.60;1.50;;;7.50;63.80;;;;;;5024910;28;20034;-82
2022/03/18 04:39:52;;;;;;;6.05;2.22;;;7.50;63.80;;;;;;5014196;28;20072;-82
2022/03/18 04:42:18;;;;;;;5.63;1.98;;;7.40;63.60;;;;;;5025185;28;20060;-81
2022/03/18 04:44:44;;;;;;;7.25;1.67;;;7.40;63.70;;;;;;5025914;28;20060;-81
2022/03/18 04:47:11;;;;;;;5.25;1.42;;;7.40;63.70;;;;;;5044219;28;20050;-82
2022/03/18 04:49:37;;;;;;;7.45;1.67;;;7.40;63.70;;;;;;5030706;28;20026;-82
2022/03/18 04:52:04;;;;;;;4.50;1.30;;;7.30;63.50;;;;;;5028311;28;20039;-82
2022/03/18 04:54:30;;;;;;;8.52;1.75;;;7.30;63.60;;;;;;5031133;28;20036;-83
2022/03/18 04:59:40;;;;;;;14.30;2.00;;;7.30;63.60;;;;;;5029769;28;20364;-82
2022/03/18 05:02:09;;;;;;;6.75;2.17;;;7.20;63.40;;;;;;5012275;28;20048;-82
2022/03/18 05:04:36;;;;;;;6.90;1.70;;;7.30;63.60;;;;;;5019032;28;20124;-83
2022/03/18 05:07:03;;;;;;;8.60;2.53;;;7.20;63.40;;;;;;5029607;28;20120;-83
2022/03/18 05:09:29;;;;;;;7.05;1.60;;;7.20;63.40;;;;;;5028520;28;20029;-82
2022/03/18 05:11:55;;;;;;;8.55;1.63;;;7.20;63.50;;;;;;5028105;28;20040;-83
2022/03/18 05:14:21;;;;;;;9.20;2.22;;;7.10;63.30;;;;;;5028785;28;20120;-84
2022/03/18 05:16:46;;;;;;;11.80;3.55;;;7.10;63.40;;;;;;5029086;28;20025;-83
2022/03/18 05:19:12;;;;;;;11.60;2.65;;;7.10;63.30;;;;;;5044595;28;20450;-82
2022/03/18 05:21:39;;;;;;;9.63;2.17;;;7.10;63.40;;;;;;5029659;28;20538;-84
2022/03/18 05:24:06;;;;;;;12.82;2.65;;;7.10;63.40;;;;;;5038156;28;20476;-84
2022/03/18 05:26:33;;;;;;;5.47;1.85;;;7.10;63.40;;;;;;5022801;28;20148;-82
2022/03/18 05:29:01;;;;;;;7.45;2.40;;;7.10;63.40;;;;;;5027062;28;20373;-82
2022/03/18 05:31:27;;;;;;;8.68;2.10;;;7.10;63.50;;;;;;5030056;28;20036;-82
2022/03/18 05:33:54;;;;;;;9.63;2.25;;;7.10;63.50;;;;;;5026224;28;20038;-83
2022/03/18 05:36:21;;;;;;;7.50;1.85;;;7.10;63.50;;;;;;5028114;28;20492;-82
2022/03/18 05:38:47;;;;;;;5.85;1.80;;;7.10;63.50;;;;;;5029367;28;20045;-82
2022/03/18 05:41:13;;;;;;;6.75;2.08;;;7.20;63.60;;;;;;5029154;28;20099;-84
2022/03/18 05:43:39;;;;;;;7.40;1.88;;;7.20;63.60;;;;;;5026826;28;20061;-84
2022/03/18 05:46:05;;;;;;;6.43;2.05;;;7.20;63.60;;;;;;5029184;28;20038;-84
2022/03/18 05:48:31;;;;;;;5.93;1.98;;;7.20;63.50;;;;;;5021808;28;20059;-85
2022/03/18 05:50:57;;;;;;;7.38;2.28;;;7.30;63.70;;;;;;5025633;28;20037;-84
2022/03/18 05:53:23;;;;;;;7.95;2.63;;;7.30;63.70;;;;;;5019686;28;20435;-83
2022/03/18 05:58:34;;;;;;;5.47;2.80;;;7.30;63.70;;;;;;5017212;28;20640;-82
2022/03/18 06:01:00;;;;;;;5.25;1.83;;;7.40;63.90;;;;;;5009988;28;20029;-84
2022/03/18 06:03:27;;;;;;;5.30;2.22;;;7.40;63.70;;;;;;5008217;28;20033;-83
2022/03/18 06:05:53;;;;;;;8.25;2.50;;;7.40;63.70;;;;;;5020663;28;20040;-83
2022/03/18 06:13:48;;;;;;;11.60;3.55;;;7.60;63.90;;;;;;5016616;28;20499;-80
2022/03/18 06:16:14;;;;;;;12.07;3.40;;;7.60;63.80;;;;;;5016738;28;20053;-79
2022/03/18 06:18:40;;;;;;;12.68;3.67;;;7.60;63.80;;;;;;5016095;28;20103;-80
2022/03/18 06:21:06;;;;;;;8.23;3.38;;;7.60;63.80;;;;;;5017335;28;20416;-80
2022/03/18 06:23:33;;;;;;;11.48;4.18;;;7.70;63.90;;;;;;5022413;28;21643;-80
2022/03/18 06:26:00;;;;;;;12.98;3.88;;;7.70;63.90;;;;;;5021532;28;20494;-79
2022/03/18 06:28:26;;;;;;;11.45;3.38;;;7.80;64.10;;;;;;5018290;28;20461;-81
2022/03/18 06:30:52;;;;;;;8.02;3.13;;;7.80;64.10;;;;;;5016500;28;20058;-81
2022/03/18 06:33:18;;;;;;;13.27;4.25;;;7.90;64.30;;;;;;5038016;28;20658;-81
2022/03/18 06:35:44;;;;;;;12.93;4.40;;;7.90;64.20;;;;;;5022064;28;20029;-81
2022/03/18 06:38:10;;;;;;;14.02;3.53;;;7.90;64.20;;;;;;5015936;28;20120;-80
2022/03/18 06:40:36;;;;;;;13.27;4.15;;;8.00;64.30;;;;;;5024810;28;20357;-79
2022/03/18 06:43:02;;;;;;;9.13;4.85;;;8.00;64.30;;;;;;5014049;28;20057;-82
2022/03/18 06:45:27;;;;;;;12.70;5.65;;;8.10;64.50;;;;;;5015133;28;20084;-84
2022/03/18 06:47:53;;;;;;;15.55;4.50;;;8.00;64.30;;;;;;5018137;28;20045;-89
2022/03/18 06:50:22;;;;;;;12.98;5.35;;;8.10;64.50;;;;;;5020240;28;20480;-93
2022/03/18 06:52:48;;;;;;;12.93;5.05;;;8.20;65.10;;;;;;5033215;28;20041;-93
2022/03/18 06:55:14;;;;;;;16.35;5.13;;;8.30;65.50;;;;;;5024971;28;20591;-88
2022/03/18 06:57:41;;;;;;;14.25;6.22;;;8.40;65.80;;;;;;5014341;28;20107;-84
2022/03/18 07:00:07;;;;;;;11.07;6.78;;;8.50;66.10;;;;;;5014945;28;20049;-86
2022/03/18 07:02:33;;;;;;;13.40;6.35;;;8.60;66.40;;;;;;5019121;28;20217;-87
2022/03/18 07:04:59;;;;;;;11.95;5.57;;;8.80;66.90;;;;;;5013055;28;20032;-88
2022/03/18 07:07:25;;;;;;;11.98;6.60;;;8.90;67.10;;;;;;5023002;28;20029;-85
2022/03/18 07:09:51;;;;;;;14.82;5.45;;;9.00;67.30;;;;;;5039047;28;20032;-89
2022/03/18 07:12:17;;;;;;;9.60;4.38;;;9.20;67.70;;;;;;5031781;28;20114;-84
2022/03/18 07:14:43;;;;;;;10.45;4.75;;;9.30;67.90;;;;;;5019751;28;20029;-87
2022/03/18 07:19:53;;;;;;;12.15;4.85;;;9.60;68.50;;;;;;5021126;28;20041;-84
2022/03/18 07:22:20;;;;;;;6.78;4.38;;;9.70;68.60;;;;;;5021261;28;20050;-83
2022/03/18 07:24:46;;;;;;;6.68;4.00;;;9.80;68.80;;;;;;5024163;28;20029;-86
2022/03/18 07:27:12;;;;;;;6.07;3.67;;;10.00;69.20;;;;;;5015759;28;20030;-86
2022/03/18 07:29:38;;;;;;;7.45;4.60;;;10.10;69.40;;;;;;5035400;28;20059;-82
2022/03/18 07:32:04;;;;;;;9.60;5.28;;;10.20;69.60;;;;;;5021966;28;20033;-80
2022/03/18 07:34:30;;;;;;;6.72;3.97;;;10.30;69.80;;;;;;5019982;28;20040;-83
2022/03/18 07:36:55;;;;;;;6.75;4.40;;;10.40;70.00;;;;;;5020565;28;20025;-81
2022/03/18 07:39:21;;;;;;;6.72;4.18;;;10.60;70.40;;;;;;5022238;28;20500;-82
2022/03/18 07:41:47;;;;;;;5.47;3.63;;;10.70;70.60;;;;;;5020346;28;20080;-81
2022/03/18 07:44:13;;;;;;;6.05;3.63;;;10.70;70.70;;;;;;5022834;28;20033;-80
2022/03/18 07:46:39;;;;;;;8.10;3.63;;;10.80;70.90;;;;;;5017390;28;20471;-78
2022/03/18 07:49:05;;;;;;;7.45;3.20;;;10.90;71.20;;;;;;5044702;28;20028;-79
2022/03/18 07:51:31;;;;;;;6.00;3.28;;;11.10;71.90;;;;;;5021577;28;20110;-81
2022/03/18 07:53:57;;;;;;;5.85;3.80;;;11.30;72.20;;;;;;5024946;28;20397;-80
2022/03/18 07:56:23;;;;;;;4.90;2.75;;;11.40;72.20;;;;;;5019960;28;20025;-80
2022/03/18 07:58:49;;;;;;;5.03;2.70;;;11.50;72.20;;;;;;5019759;28;20132;-81
2022/03/18 08:01:15;;;;;;;7.07;3.90;;;11.60;72.30;;;;;;5019070;28;20052;-81
2022/03/18 08:03:41;;;;;;;6.82;4.22;;;11.70;72.40;;;;;;5023018;28;20029;-80
2022/03/18 08:06:07;;;;;;;5.53;3.33;;;11.70;72.30;;;;;;5025399;28;20480;-79
2022/03/18 08:08:33;;;;;;;5.22;3.20;;;11.80;72.40;;;;;;5024569;28;20029;-79
2022/03/18 08:10:59;;;;;;;4.95;3.45;;;11.80;72.20;;;;;;5024154;28;20033;-80
2022/03/18 08:13:26;;;;;;;5.90;3.40;;;11.90;72.20;;;;;;5036922;28;20025;-80
2022/03/18 08:15:52;;;;;;;4.93;3.58;;;11.90;72.00;;;;;;5023023;28;20029;-81
2022/03/18 08:18:19;;;;;;;6.25;4.05;;;11.90;71.90;;;;;;5032389;28;20762;-77
2022/03/18 08:20:50;;;;;;;6.20;3.92;;;12.00;71.90;;;;;;5036561;28;20033;-77
2022/03/18 08:23:16;;;;;;;7.20;4.65;;;12.00;71.70;;;;;;5040030;28;20021;-78
2022/03/18 08:25:42;;;;;;;5.30;4.25;;;12.00;71.60;;;;;;5060645;28;20033;-79
2022/03/18 08:28:08;;;;;;;4.63;3.92;;;12.00;71.50;;;;;;5061468;28;20040;-79
2022/03/18 08:30:35;;;;;;;5.72;3.90;;;12.00;71.40;;;;;;5044631;28;20093;-77
2022/03/18 08:33:02;;;;;;;7.72;4.60;;;12.00;71.30;;;;;;5035479;28;20041;-79
2022/03/18 08:35:28;;;;;;;5.00;3.65;;;11.90;71.10;;;;;;5041339;28;20037;-76
2022/03/18 08:37:57;;;;;;;5.88;4.10;;;11.90;71.00;;;;;;5045447;28;20084;-79
2022/03/18 08:40:32;;;;;;;7.35;4.85;;;11.90;70.90;;;;;;5048743;28;20025;-77
2022/03/18 08:42:59;;;;;;;7.50;4.82;;;11.90;70.90;;;;;;5062266;28;20281;-83
2022/03/18 08:45:26;;;;;;;6.70;4.30;;;11.90;70.80;;;;;;5041515;28;20044;-80
2022/03/18 08:47:53;;;;;;;7.32;4.55;;;11.90;70.80;;;;;;5032148;28;20115;-85
2022/03/18 08:50:21;;;;;;;6.32;4.10;;;11.90;70.80;;;;;;5055686;28;20069;-86
2022/03/18 08:52:49;;;;;;;5.30;4.07;;;11.90;70.70;;;;;;5056807;28;20056;-86
2022/03/18 08:55:16;;;;;;;6.70;4.50;;;11.80;70.50;;;;;;5043806;28;20044;-81
2022/03/18 08:57:42;;;;;;;7.97;4.57;;;11.80;70.50;;;;;;5014356;28;20100;-84
2022/03/18 09:00:14;;;;;;;5.22;4.30;;;11.80;71.00;;;;;;5015847;28;22224;-85
2022/03/18 09:02:41;;;;;;;4.95;4.05;;;11.80;70.40;;;;;;5037786;28;20068;-85
2022/03/18 09:05:08;;;;;;;5.97;5.38;;;11.80;70.30;;;;;;5015725;28;20065;-85
2022/03/18 09:07:35;;;;;;;5.07;4.35;;;11.80;70.30;;;;;;5002992;28;20026;-85
2022/03/18 09:10:02;;;;;;;6.97;4.10;;;11.80;70.20;;;;;;5021002;28;20030;-86
2022/03/18 09:12:28;;;;;;;7.00;4.43;;;11.80;70.10;;;;;;5021928;28;20030;-83
2022/03/18 09:14:54;;;;;;;7.65;4.25;;;11.80;70.10;;;;;;5020617;28;20036;-85
2022/03/18 09:17:21;;;;;;;6.70;4.25;;;11.80;70.10;;;;;;5021128;28;20033;-85
2022/03/18 09:19:47;;;;;;;6.22;3.97;;;11.80;70.00;;;;;;5010572;28;20053;-80
2022/03/18 09:22:16;;;;;;;9.60;5.03;;;11.80;70.00;;;;;;5024469;28;20103;-86
2022/03/18 09:24:44;;;;;;;5.93;4.20;;;11.90;70.10;;;;;;5024368;28;20045;-76
2022/03/18 09:27:10;;;;;;;7.15;4.47;;;11.90;70.00;;;;;;5023756;28;20041;-82
2022/03/18 09:29:39;;;;;;;7.20;4.13;;;11.90;69.90;;;;;;5023177;28;20083;-80
2022/03/18 09:32:06;;;;;;;6.30;3.90;;;12.00;70.20;;;;;;5041651;28;20029;-80
2022/03/18 09:34:32;;;;;;;7.03;4.95;;;12.10;70.30;;;;;;5006707;28;20851;-87
2022/03/18 09:36:58;;;;;;;6.40;3.90;;;12.20;70.40;;;;;;5027121;28;20053;-86
2022/03/18 09:39:26;;;;;;;6.97;4.90;;;12.20;70.30;;;;;;5014776;28;20381;-85
2022/03/18 09:41:53;;;;;;;8.68;4.90;;;12.30;70.30;;;;;;5026061;28;20033;-85
2022/03/18 09:44:20;;;;;;;6.03;4.43;;;12.30;70.20;;;;;;5010425;28;20129;-83
2022/03/18 09:46:48;;;;;;;7.57;4.35;;;12.30;70.10;;;;;;5016726;28;20129;-77
2022/03/18 09:49:16;;;;;;;8.68;5.35;;;12.30;70.10;;;;;;5022315;28;20164;-77
2022/03/18 09:51:42;;;;;;;6.55;4.45;;;12.40;70.20;;;;;;5041397;28;20350;-75
2022/03/18 09:54:12;;;;;;;10.15;4.72;;;12.40;70.10;;;;;;5025724;28;20518;-76
2022/03/18 09:56:48;;;;;;;7.68;4.00;;;12.50;70.10;;;;;;5024797;28;20037;-76
2022/03/18 09:59:15;;;;;;;7.28;3.95;;;12.50;69.90;;;;;;5036841;28;20033;-76
2022/03/18 10:01:41;;;;;;;6.70;4.03;;;12.50;69.80;;;;;;5024291;28;20029;-77
2022/03/18 10:04:11;;;;;;;5.28;4.03;;;12.60;69.90;;;;;;5017695;28;20034;-75
2022/03/18 10:06:44;;;;;;;5.78;4.05;;;12.60;69.90;;;;;;5022459;28;20071;-76
2022/03/18 10:09:12;;;;;;;6.72;4.45;;;12.60;69.80;;;;;;5023747;28;20030;-76
2022/03/18 10:11:40;;;;;;;9.07;4.03;;;12.60;69.80;;;;;;5022750;28;20029;-76
2022/03/18 10:14:08;;;;;;;7.32;4.30;;;12.60;69.70;;;;;;5022454;28;20523;-75
2022/03/18 10:16:45;;;;;;;7.57;4.18;;;12.60;69.60;;;;;;5018588;28;20026;-76
2022/03/18 10:19:13;;;;;;;8.75;4.72;;;12.70;69.80;;;;;;5008006;28;20113;-76
2022/03/18 10:22:10;;;;;;;7.82;4.03;;;12.70;69.70;;;;;;5016564;28;20025;-78
2022/03/18 10:24:38;;;;;;;5.93;3.67;;;12.70;69.60;;;;;;5011787;28;20033;-78
2022/03/18 10:27:20;;;;;;;6.40;3.65;;;12.70;69.60;;;;;;5009930;28;20330;-77
2022/03/18 10:29:54;;;;;;;6.97;4.25;;;12.70;69.50;;;;;;5023269;28;20033;-78
2022/03/18 10:32:22;;;;;;;6.15;3.75;;;12.80;69.60;;;;;;5024574;28;20033;-77
2022/03/18 10:37:44;;;;;;;5.97;3.80;;;12.80;69.40;;;;;;5007126;28;20116;-78
2022/03/18 10:40:11;;;;;;;5.97;3.47;;;12.90;69.50;;;;;;5020030;28;20128;-79
2022/03/18 10:42:38;;;;;;;4.85;3.58;;;12.90;69.40;;;;;;5006055;28;20033;-81
2022/03/18 10:45:05;;;;;;;6.32;3.80;;;13.00;69.50;;;;;;5023359;28;20029;-81
2022/03/18 10:47:39;;;;;;;5.30;3.53;;;13.00;69.30;;;;;;5022774;28;20127;-80
2022/03/18 10:50:11;;;;;;;4.97;3.08;;;13.00;69.20;;;;;;5021145;28;20388;-79
2022/03/18 10:52:38;;;;;;;8.70;3.97;;;13.10;69.30;;;;;;5023877;28;20140;-79
2022/03/18 10:55:25;;;;;;;6.22;3.80;;;13.10;69.20;;;;;;5012465;28;20173;-79
2022/03/18 10:57:53;;;;;;;5.95;3.72;;;13.20;69.30;;;;;;5023573;28;20033;-81
2022/03/18 11:00:22;;;;;;;9.20;4.40;;;13.20;69.20;;;;;;5023391;28;20060;-79
2022/03/18 11:02:49;;;;;;;5.55;3.50;;;13.30;69.20;;;;;;5023854;28;20030;-79
2022/03/18 11:05:19;;;;;;;8.98;3.88;;;13.30;69.10;;;;;;5007875;28;20061;-79
2022/03/18 11:07:46;;;;;;;6.03;3.13;;;13.30;69.00;;;;;;5009928;28;20117;-79
2022/03/18 11:13:01;;;;;;;6.45;3.35;;;13.40;69.00;;;;;;5023783;28;20029;-79
2022/03/18 11:15:29;;;;;;;7.57;3.67;;;13.40;68.90;;;;;;5023303;28;20025;-78
2022/03/18 11:17:56;;;;;;;4.93;3.30;;;13.40;68.70;;;;;;5011009;28;20030;-79
2022/03/18 11:20:27;;;;;;;10.82;3.72;;;13.50;68.80;;;;;;5015565;28;20150;-79
2022/03/18 11:22:54;;;;;;;6.28;3.40;;;13.50;68.70;;;;;;5023854;28;20155;-80
2022/03/18 11:25:21;;;;;;;6.93;3.97;;;13.50;68.70;;;;;;5010289;28;20026;-79
2022/03/18 11:27:48;;;;;;;8.00;3.75;;;13.60;68.70;;;;;;5023596;28;20514;-79
2022/03/18 11:30:27;;;;;;;8.95;3.55;;;13.60;69.20;;;;;;5023858;28;20040;-78
2022/03/18 11:33:06;;;;;;;5.88;2.75;;;13.70;68.70;;;;;;5009704;28;20053;-80
2022/03/18 11:35:50;;;;;;;7.78;3.83;;;13.70;68.60;;;;;;5018317;28;20484;-81
2022/03/18 11:38:21;;;;;;;9.68;3.60;;;13.80;68.70;;;;;;5023833;28;20420;-85
2022/03/18 11:40:58;;;;;;;6.05;2.95;;;13.80;68.50;;;;;;5013598;28;20033;-84
2022/03/18 11:43:32;;;;;;;5.57;3.03;;;13.80;68.40;;;;;;5022316;28;20073;-83
2022/03/18 11:46:14;;;;;;;4.43;2.45;;;13.90;68.50;;;;;;5005006;28;20026;-83
2022/03/18 11:48:53;;;;;;;6.65;3.00;;;14.00;68.50;;;;;;5015053;28;20452;-84
2022/03/18 11:51:24;;;;;;;7.35;2.90;;;14.10;68.60;;;;;;5008482;28;20527;-85
2022/03/18 11:53:52;;;;;;;5.03;3.13;;;14.10;68.40;;;;;;5016251;28;20116;-85
2022/03/18 11:56:40;;;;;;;5.65;2.75;;;14.10;68.40;;;;;;5038301;28;20056;-85
2022/03/18 11:59:24;;;;;;;6.25;2.78;;;14.20;68.40;;;;;;5017098;28;20493;-82
2022/03/18 12:01:57;;;;;;;6.07;2.70;;;14.20;68.20;;;;;;5012353;28;20033;-82
2022/03/18 12:04:42;;;;;;;5.25;2.80;;;14.20;68.20;;;;;;5020916;28;20203;-81
2022/03/18 12:07:24;;;;;;;5.75;2.10;;;14.30;68.20;;;;;;5017968;28;20441;-83
2022/03/18 12:10:04;;;;;;;7.13;3.20;;;14.30;68.10;;;;;;5005583;28;20029;-81
2022/03/18 12:12:37;;;;;;;5.10;2.42;;;14.30;68.00;;;;;;5038212;28;20282;-85
2022/03/18 12:15:04;;;;;;;;;;;14.40;68.20;;;;;;5022362;28;20276;-83
2022/03/18 12:17:31;;;;;;;5.45;2.70;;;14.40;68.10;;;;;;5018008;28;20380;-85
2022/03/18 12:20:01;;;;;;;5.07;2.60;;;14.40;68.00;;;;;;5019834;28;20045;-79
2022/03/18 12:22:29;;;;;;;5.85;2.33;;;14.50;68.10;;;;;;5019702;28;20025;-82
2022/03/18 12:24:56;;;;;;;7.03;2.38;;;14.60;68.20;;;;;;5022555;28;20033;-79
2022/03/18 12:27:39;;;;;;;8.40;2.97;;;14.60;68.00;;;;;;5022414;28;20036;-81
2022/03/18 12:30:11;;;;;;;5.60;2.42;;;14.60;68.10;;;;;;5030801;28;20428;-81
2022/03/18 12:32:40;;;;;;;8.20;2.13;;;14.70;68.20;;;;;;5035007;28;20077;-81
2022/03/18 12:35:06;;;;;;;8.93;2.60;;;14.90;68.30;;;;;;5024109;28;20032;-82
2022/03/18 12:37:34;;;;;;;7.05;2.53;;;15.00;68.40;;;;;;5027604;28;20349;-80
2022/03/18 12:40:09;;;;;;;5.03;2.00;;;15.10;68.40;;;;;;5030117;28;20042;-81
2022/03/18 12:42:54;;;;;;;7.15;2.00;;;15.20;68.40;;;;;;5028620;28;20250;-80
2022/03/18 12:45:39;;;;;;;6.35;2.33;;;15.30;68.50;;;;;;5015119;28;20100;-80
2022/03/18 12:48:07;;;;;;;5.65;1.90;;;15.30;68.30;;;;;;5018596;28;20520;-78
2022/03/18 12:50:36;;;;;;;8.57;2.83;;;15.40;68.30;;;;;;5024558;28;20030;-82
2022/03/18 12:53:15;;;;;;;8.63;3.65;;;15.40;68.20;;;;;;5022193;28;20393;-79
2022/03/18 12:55:43;;;;;;;4.03;1.60;;;15.60;68.40;;;;;;5009217;28;20040;-78
2022/03/18 12:58:41;;;;;;;5.68;2.20;;;15.60;68.30;;;;;;5021303;28;20061;-80
2022/03/18 13:01:11;;;;;;;5.30;1.58;;;15.70;68.20;;;;;;5022720;28;20041;-81
2022/03/18 13:03:48;;;;;;;8.60;2.75;;;15.80;68.30;;;;;;5019966;28;20496;-81
2022/03/18 13:06:19;;;;;;;4.97;2.05;;;15.80;68.10;;;;;;5010884;28;20366;-82
2022/03/18 13:08:53;;;;;;;9.00;2.22;;;16.00;68.30;;;;;;5015058;28;20025;-80
2022/03/18 13:11:18;;;;;;;4.95;2.10;;;16.10;68.30;;;;;;5017105;28;20033;-77
2022/03/18 13:13:51;;;;;;;3.97;1.63;;;16.10;68.00;;;;;;5017376;28;20030;-77
2022/03/18 13:16:24;;;;;;;8.50;2.17;;;16.20;68.00;;;;;;5007935;28;20540;-78
2022/03/18 13:18:53;;;;;;;5.55;2.28;;;16.30;68.00;;;;;;5025750;28;20047;-77